Time;durP1;ratioP1;P1;durP2;ratioP2;P2;SDS_P1;SDS_P2;PMS_P1;PMS_P2;Temp;Humidity;BMP_temperature;BMP_pressure;BME280_temperature;BME280_humidity;BME280_pressure;Samples;Min_cycle;Max_cycle;Signal;HPM_P1;HPM_P2
2023/01/10 00:00:53;;;;;;;13.57;2.50;;;5.30;99.90;;;;;;6223609;23;20338;-77
2023/01/10 00:03:25;;;;;;;17.55;2.75;;;6.40;99.90;;;;;;6246760;23;20020;-77
2023/01/10 00:05:53;;;;;;;9.23;2.40;;;5.20;99.90;;;;;;6199244;23;20319;-78
2023/01/10 00:08:35;;;;;;;10.25;2.30;;;5.40;99.90;;;;;;6200094;23;20016;-78
2023/01/10 00:14:33;;;;;;;6.47;1.80;;;5.20;99.90;;;;;;6247347;23;20027;-78
2023/01/10 00:17:17;;;;;;;11.75;2.47;;;4.50;99.90;;;;;;6248088;23;20020;-78
2023/01/10 00:23:27;;;;;;;7.63;2.15;;;3.90;99.90;;;;;;6251619;23;20086;-78
2023/01/10 00:26:05;;;;;;;8.13;2.17;;;5.90;99.90;;;;;;6142490;23;20075;-77
2023/01/10 00:28:34;;;;;;;8.88;2.22;;;4.90;99.90;;;;;;6223796;23;20092;-77
2023/01/10 00:31:05;;;;;;;8.85;1.80;;;4.90;99.90;;;;;;6223710;23;20011;-77
2023/01/10 00:33:32;;;;;;;6.13;2.05;;;4.80;99.90;;;;;;6222997;23;20040;-76
2023/01/10 00:36:40;;;;;;;;;;;;;;;;;;;;;
2023/01/10 00:39:20;;;;;;;12.45;2.10;;;5.60;99.90;;;;;;6248868;23;20020;-77
2023/01/10 00:49:14;;;;;;;;;;;;;;;;;;;;;
2023/01/10 00:51:57;;;;;;;11.10;2.35;;;5.80;99.90;;;;;;6187290;23;20632;-77
2023/01/10 00:54:31;;;;;;;12.23;2.33;;;4.80;99.90;;;;;;6146191;23;20071;-76
2023/01/10 00:57:30;;;;;;;15.38;3.15;;;5.30;99.90;;;;;;6168218;23;20012;-77
2023/01/10 01:00:27;;;;;;;18.20;2.83;;;5.70;99.90;;;;;;6167860;23;20012;-77
2023/01/10 01:03:33;;;;;;;10.65;3.13;;;4.80;99.90;;;;;;6169401;23;20036;-78
2023/01/10 01:26:15;;;;;;;12.55;2.53;;;6.40;99.90;;;;;;5872910;24;20324;-78
2023/01/10 01:29:29;;;;;;;12.10;2.80;;;5.80;99.90;;;;;;5918824;24;20156;-76
2023/01/10 01:36:06;;;;;;;12.40;3.25;;;6.40;99.90;;;;;;5900450;24;20031;-76
2023/01/10 01:38:48;;;;;;;16.23;2.90;;;4.20;99.90;;;;;;5949912;23;20022;-77
2023/01/10 01:44:53;;;;;;;11.98;2.33;;;5.40;99.90;;;;;;6139733;23;20476;-76
2023/01/10 01:47:46;;;;;;;14.18;3.28;;;6.50;99.90;;;;;;6118632;23;20227;-76
2023/01/10 01:50:38;;;;;;;15.05;3.08;;;6.90;99.90;;;;;;6160316;23;20059;-76
2023/01/10 01:57:09;;;;;;;18.23;3.05;;;5.80;99.90;;;;;;6106670;23;20044;-77
2023/01/10 02:00:03;;;;;;;;;;;;;;;;;;;;;
2023/01/10 02:03:36;;;;;;;9.50;2.80;;;6.00;99.90;;;;;;6219540;23;20444;-78
2023/01/10 02:06:18;;;;;;;;;;;;;;;;;;;;;
2023/01/10 02:09:22;;;;;;;17.90;3.70;;;5.80;99.90;;;;;;6200044;23;20015;-77
2023/01/10 02:12:10;;;;;;;20.88;3.13;;;6.00;99.90;;;;;;6198321;23;20020;-77
2023/01/10 02:15:03;;;;;;;12.23;3.03;;;6.00;99.90;;;;;;6156915;23;20017;-77
2023/01/10 02:17:51;;;;;;;17.98;4.15;;;5.80;99.90;;;;;;6088578;23;20014;-77
2023/01/10 02:20:33;;;;;;;17.13;3.03;;;4.80;99.90;;;;;;6158000;23;20356;-77
2023/01/10 02:23:36;;;;;;;19.48;3.17;;;6.00;99.90;;;;;;6157977;23;20013;-77
2023/01/10 02:26:53;;;;;;;14.98;2.58;;;6.10;99.90;;;;;;6153690;23;20279;-77
2023/01/10 02:29:59;;;;;;;20.77;3.80;;;6.10;99.90;;;;;;6134576;23;20013;-78
2023/01/10 02:33:13;;;;;;;17.35;2.95;;;7.40;99.90;;;;;;6158295;23;20053;-77
2023/01/10 02:36:09;;;;;;;11.80;2.55;;;6.00;99.90;;;;;;6126469;23;20013;-77
2023/01/10 02:47:38;;;;;;;14.85;2.75;;;6.00;99.90;;;;;;5930637;24;20216;-78
2023/01/10 02:55:02;;;;;;;;;;;;;;;;;;;;;
2023/01/10 02:57:50;;;;;;;;;;;5.20;99.90;;;;;;5839809;24;20089;-77
2023/01/10 03:01:01;;;;;;;15.43;2.92;;;7.10;99.90;;;;;;5939952;23;19969;-77
2023/01/10 03:15:36;;;;;;;15.40;3.00;;;6.50;99.90;;;;;;6158410;23;20009;-77
2023/01/10 03:19:37;;;;;;;14.10;2.75;;;6.10;99.90;;;;;;5985567;24;20016;-78
2023/01/10 03:22:47;;;;;;;19.13;4.38;;;5.30;99.90;;;;;;6025469;23;20215;-79
2023/01/10 03:25:37;;;;;;;12.20;2.65;;;7.70;99.90;;;;;;6251079;23;20329;-78
2023/01/10 03:29:31;;;;;;;14.45;3.38;;;4.10;99.90;;;;;;6224702;23;20020;-79
2023/01/10 03:44:46;;;;;;;18.98;4.20;;;6.20;99.90;;;;;;6013576;23;20155;-78
2023/01/10 03:47:24;;;;;;;8.38;1.98;;;5.70;99.90;;;;;;6006870;23;20023;-76
2023/01/10 03:50:23;;;;;;;13.63;2.75;;;6.00;99.90;;;;;;6052480;23;20097;-78
2023/01/10 03:52:49;;;;;;;12.07;2.42;;;6.00;99.90;;;;;;6217642;23;20024;-79
2023/01/10 03:55:19;;;;;;;9.85;2.20;;;5.70;99.90;;;;;;6198461;23;20364;-76
2023/01/10 04:14:46;;;;;;;;;;;;;;;;;;;;;
2023/01/10 04:18:17;;;;;;;;;;;;;;;;;;;;;
2023/01/10 04:21:47;;;;;;;12.32;2.60;;;5.40;99.90;;;;;;5006745;27;4197889;-77
2023/01/10 05:07:53;;;;;;;18.25;3.53;;;7.00;99.90;;;;;;4732142;30;20240;-78
2023/01/10 05:10:19;;;;;;;18.45;3.22;;;6.20;99.90;;;;;;4741213;29;20035;-77
2023/01/10 05:12:45;;;;;;;14.80;3.17;;;6.30;99.90;;;;;;4859537;29;20636;-78
2023/01/10 05:15:11;;;;;;;18.33;3.80;;;6.10;99.90;;;;;;5022007;28;20299;-78
2023/01/10 05:17:37;;;;;;;16.45;3.80;;;6.50;99.90;;;;;;5076007;28;20036;-78
2023/01/10 05:20:03;;;;;;;16.75;3.00;;;6.30;99.90;;;;;;5059786;28;20060;-79
2023/01/10 05:22:29;;;;;;;15.13;3.15;;;6.10;99.90;;;;;;5058193;28;20107;-79
2023/01/10 05:24:54;;;;;;;11.93;2.95;;;6.20;99.90;;;;;;5041508;28;20028;-80
2023/01/10 05:27:20;;;;;;;11.77;4.03;;;6.50;99.90;;;;;;5050559;28;20056;-79
2023/01/10 05:29:46;;;;;;;14.60;3.17;;;6.40;99.90;;;;;;5058074;28;20101;-80
2023/01/10 05:32:12;;;;;;;14.10;2.78;;;6.10;99.90;;;;;;5054470;28;20414;-80
2023/01/10 05:34:37;;;;;;;5.25;2.35;;;6.80;99.90;;;;;;5045494;28;20039;-80
2023/01/10 05:37:12;;;;;;;14.10;2.60;;;6.10;99.90;;;;;;5067107;28;20339;-79
2023/01/10 05:39:38;;;;;;;9.20;2.40;;;6.20;99.90;;;;;;5068476;28;20042;-80
2023/01/10 05:42:04;;;;;;;15.07;3.50;;;6.40;99.90;;;;;;5066103;28;20059;-79
2023/01/10 05:44:32;;;;;;;16.08;3.13;;;6.30;99.90;;;;;;5082710;28;20085;-78
2023/01/10 05:46:58;;;;;;;10.45;2.50;;;6.60;99.90;;;;;;5081671;28;20036;-78
2023/01/10 05:49:27;;;;;;;10.77;2.33;;;6.40;99.90;;;;;;5066313;28;20058;-79
2023/01/10 05:51:56;;;;;;;13.13;2.92;;;6.70;99.90;;;;;;5063876;28;20036;-79
2023/01/10 05:54:22;;;;;;;20.88;4.07;;;6.60;99.90;;;;;;5081369;28;20047;-80
2023/01/10 05:56:48;;;;;;;16.08;3.10;;;6.40;99.90;;;;;;5049304;28;20075;-80
2023/01/10 05:59:13;;;;;;;15.93;3.65;;;6.70;99.90;;;;;;5063129;28;20041;-80
2023/01/10 06:02:42;;;;;;;13.13;3.10;;;6.30;99.90;;;;;;5075870;28;20338;-78
2023/01/10 06:06:04;;;;;;;15.68;3.17;;;6.00;99.90;;;;;;4922041;29;20040;-78
2023/01/10 06:08:30;;;;;;;12.95;3.13;;;6.30;99.90;;;;;;4890722;29;20515;-80
2023/01/10 06:10:56;;;;;;;10.40;3.00;;;6.60;99.90;;;;;;4948518;28;20049;-79
2023/01/10 06:13:22;;;;;;;10.70;2.80;;;6.40;99.90;;;;;;5042342;28;20097;-80
2023/01/10 06:15:48;;;;;;;13.07;3.85;;;6.30;99.90;;;;;;5080330;28;20032;-80
2023/01/10 06:18:14;;;;;;;10.55;2.90;;;6.40;99.90;;;;;;5081717;28;20357;-80
2023/01/10 06:20:41;;;;;;;15.98;3.17;;;6.30;99.90;;;;;;5081755;28;20051;-79
2023/01/10 06:23:08;;;;;;;9.13;3.00;;;6.60;99.90;;;;;;5076341;28;20040;-79
2023/01/10 06:25:39;;;;;;;16.60;4.45;;;6.50;99.90;;;;;;5064136;28;20067;-79
2023/01/10 06:28:05;;;;;;;14.02;3.63;;;6.50;99.90;;;;;;5097760;28;20051;-80
2023/01/10 06:30:31;;;;;;;12.15;3.90;;;6.40;99.90;;;;;;5080894;28;20156;-78
2023/01/10 06:33:15;;;;;;;12.27;3.90;;;6.20;99.90;;;;;;5081985;28;20168;-80
2023/01/10 06:35:40;;;;;;;11.98;3.63;;;6.60;99.90;;;;;;5083565;28;20051;-80
2023/01/10 06:38:06;;;;;;;15.55;3.67;;;6.50;99.90;;;;;;5064232;28;20028;-81
2023/01/10 06:40:32;;;;;;;15.27;3.67;;;6.50;99.90;;;;;;5099821;28;20036;-79
2023/01/10 06:42:58;;;;;;;12.40;4.15;;;6.40;99.90;;;;;;5063802;28;20028;-79
2023/01/10 06:45:24;;;;;;;15.50;4.45;;;6.50;99.90;;;;;;5081967;28;20020;-82
2023/01/10 06:47:49;;;;;;;15.95;4.40;;;6.40;99.90;;;;;;5064235;28;20254;-80
2023/01/10 06:50:15;;;;;;;11.15;3.53;;;6.50;99.90;;;;;;5076937;28;20031;-81
2023/01/10 06:52:41;;;;;;;10.80;3.70;;;6.40;99.90;;;;;;5092834;28;20153;-80
2023/01/10 06:56:07;;;;;;;11.65;3.30;;;6.00;99.90;;;;;;5077578;28;20094;-80
2023/01/10 06:58:33;;;;;;;10.10;2.97;;;4.50;99.90;;;;;;5069252;28;20424;-81
2023/01/10 07:00:59;;;;;;;9.25;3.25;;;6.30;99.90;;;;;;5065196;28;20027;-79
2023/01/10 07:03:25;;;;;;;11.35;2.72;;;6.10;99.90;;;;;;5080756;28;20028;-79
2023/01/10 07:05:50;;;;;;;12.95;2.92;;;5.90;99.90;;;;;;5045969;28;20028;-79
2023/01/10 07:08:16;;;;;;;9.45;2.95;;;5.70;99.90;;;;;;5081455;28;20031;-78
2023/01/10 07:10:43;;;;;;;11.13;2.88;;;5.80;99.90;;;;;;5061224;28;20040;-79
2023/01/10 07:13:09;;;;;;;17.95;3.58;;;5.70;99.90;;;;;;5095852;28;20036;-79
2023/01/10 07:15:35;;;;;;;11.60;2.95;;;6.00;99.90;;;;;;5045241;28;20031;-79
2023/01/10 07:18:01;;;;;;;9.48;3.55;;;6.50;99.90;;;;;;5073836;28;20390;-80
2023/01/10 07:20:27;;;;;;;11.27;4.05;;;5.70;99.90;;;;;;5080708;28;20052;-80
2023/01/10 07:22:54;;;;;;;13.88;3.50;;;6.00;99.90;;;;;;5079010;28;20363;-78
2023/01/10 07:25:20;;;;;;;24.58;4.20;;;6.10;99.90;;;;;;5076161;28;20211;-80
2023/01/10 07:27:46;;;;;;;9.50;3.00;;;6.20;99.90;;;;;;5057922;28;20219;-79
2023/01/10 07:30:12;;;;;;;18.30;4.18;;;6.10;99.90;;;;;;5064641;28;20044;-79
2023/01/10 07:32:37;;;;;;;11.70;3.33;;;6.20;99.90;;;;;;5066427;28;20106;-80
2023/01/10 07:35:04;;;;;;;13.00;3.25;;;6.30;99.90;;;;;;5076740;28;20020;-80
2023/01/10 07:37:29;;;;;;;12.38;3.70;;;6.10;99.90;;;;;;5065339;28;20073;-79
2023/01/10 07:39:55;;;;;;;15.88;3.92;;;6.20;99.90;;;;;;5066078;28;20103;-79
2023/01/10 07:42:21;;;;;;;14.45;3.83;;;6.40;99.90;;;;;;5056816;28;20116;-79
2023/01/10 07:44:46;;;;;;;20.75;4.05;;;6.10;99.90;;;;;;5071416;28;20107;-78
2023/01/10 07:47:12;;;;;;;17.02;4.40;;;6.10;99.90;;;;;;5077326;28;20028;-80
2023/01/10 07:49:38;;;;;;;23.67;5.35;;;6.40;99.90;;;;;;5071917;28;20059;-76
2023/01/10 07:52:06;;;;;;;16.70;4.35;;;6.50;99.90;;;;;;5080695;28;20124;-77
2023/01/10 07:54:32;;;;;;;27.17;4.90;;;6.20;99.90;;;;;;5062077;28;20115;-80
2023/01/10 07:56:57;;;;;;;18.05;4.78;;;6.70;99.90;;;;;;5063187;28;20107;-78
2023/01/10 07:59:23;;;;;;;19.92;4.35;;;6.20;99.90;;;;;;5066239;28;20032;-78
2023/01/10 08:01:49;;;;;;;19.00;5.22;;;6.30;99.90;;;;;;5061717;28;20510;-77
2023/01/10 08:04:15;;;;;;;25.08;4.80;;;6.60;99.90;;;;;;5062487;28;20097;-77
2023/01/10 08:06:40;;;;;;;19.88;4.88;;;6.70;99.90;;;;;;5076162;28;20091;-76
2023/01/10 08:09:06;;;;;;;15.73;4.40;;;6.70;99.90;;;;;;5093835;28;20219;-78
2023/01/10 08:11:35;;;;;;;22.35;6.43;;;6.70;99.90;;;;;;5079062;28;20103;-77
2023/01/10 08:14:01;;;;;;;18.02;4.05;;;6.80;99.90;;;;;;5073803;28;20280;-78
2023/01/10 08:16:31;;;;;;;24.88;5.10;;;6.40;99.90;;;;;;5060186;28;20032;-78
2023/01/10 08:18:56;;;;;;;19.08;4.53;;;6.80;99.90;;;;;;5098886;28;20553;-77
2023/01/10 08:21:22;;;;;;;20.27;5.53;;;6.40;99.90;;;;;;5064875;28;20047;-77
2023/01/10 08:23:50;;;;;;;21.63;4.93;;;7.10;99.90;;;;;;5045736;28;20040;-77
2023/01/10 08:26:16;;;;;;;18.83;4.20;;;6.50;99.90;;;;;;5034943;28;20028;-78
2023/01/10 08:28:45;;;;;;;17.70;4.75;;;6.40;99.90;;;;;;5077190;28;20029;-77
2023/01/10 08:31:10;;;;;;;23.42;4.40;;;6.70;99.90;;;;;;5062435;28;20107;-76
2023/01/10 08:33:38;;;;;;;19.45;4.65;;;6.50;99.90;;;;;;5080118;28;20106;-78
2023/01/10 08:36:03;;;;;;;22.20;4.88;;;6.90;99.90;;;;;;5089562;28;20032;-77
2023/01/10 08:38:29;;;;;;;21.30;4.80;;;6.80;99.90;;;;;;5069153;28;20055;-76
2023/01/10 08:40:58;;;;;;;19.10;4.35;;;7.00;99.90;;;;;;5060889;28;20074;-76
2023/01/10 08:43:23;;;;;;;23.10;4.70;;;6.50;99.90;;;;;;5061877;28;20032;-77
2023/01/10 08:45:52;;;;;;;24.38;4.97;;;6.50;99.90;;;;;;5074602;28;20042;-77
2023/01/10 08:48:18;;;;;;;25.25;5.10;;;6.70;99.90;;;;;;5060934;28;20039;-76
2023/01/10 08:50:44;;;;;;;16.77;4.32;;;6.60;99.90;;;;;;5064957;28;20288;-76
2023/01/10 08:53:09;;;;;;;20.50;4.32;;;5.80;99.90;;;;;;5098361;28;20146;-76
2023/01/10 08:55:36;;;;;;;21.60;4.70;;;6.60;99.90;;;;;;5053328;28;20025;-79
2023/01/10 08:58:02;;;;;;;20.83;4.82;;;6.70;99.90;;;;;;5087731;28;20245;-76
2023/01/10 09:00:29;;;;;;;19.63;4.80;;;6.80;99.90;;;;;;5060880;28;20036;-76
2023/01/10 09:02:55;;;;;;;14.25;4.03;;;6.40;99.90;;;;;;5060534;28;20039;-77
2023/01/10 09:05:20;;;;;;;15.43;4.40;;;6.60;99.90;;;;;;5060794;28;20028;-76
2023/01/10 09:07:47;;;;;;;14.27;4.63;;;6.60;99.90;;;;;;5083416;28;20032;-76
2023/01/10 09:10:12;;;;;;;28.85;4.78;;;6.60;99.90;;;;;;5084279;28;20044;-76
2023/01/10 09:12:54;;;;;;;18.40;3.78;;;6.80;99.90;;;;;;5101769;28;20115;-76
2023/01/10 09:15:21;;;;;;;25.88;4.38;;;7.30;99.90;;;;;;5086604;28;20044;-77
2023/01/10 09:17:51;;;;;;;16.27;4.13;;;6.90;99.90;;;;;;5101454;28;20035;-77
2023/01/10 09:20:17;;;;;;;19.83;4.32;;;7.30;99.90;;;;;;5100512;28;20040;-77
2023/01/10 09:22:46;;;;;;;24.52;4.00;;;7.10;99.90;;;;;;5102908;28;20102;-77
2023/01/10 09:25:11;;;;;;;21.63;4.35;;;7.10;99.90;;;;;;5084036;28;20077;-77
2023/01/10 09:27:37;;;;;;;14.40;4.97;;;7.10;99.90;;;;;;5084685;28;20085;-75
2023/01/10 09:30:03;;;;;;;17.20;4.38;;;7.20;99.90;;;;;;5067351;28;20036;-76
2023/01/10 09:32:29;;;;;;;21.80;4.15;;;7.30;99.90;;;;;;5101376;28;20063;-76
2023/01/10 09:34:55;;;;;;;18.00;4.95;;;7.80;99.90;;;;;;5083693;28;20202;-76
2023/01/10 09:37:20;;;;;;;19.92;3.90;;;7.70;99.90;;;;;;5067475;28;20319;-76
2023/01/10 09:39:46;;;;;;;21.25;4.55;;;7.70;99.90;;;;;;5100681;28;20064;-75
2023/01/10 09:42:12;;;;;;;17.88;5.05;;;7.50;99.90;;;;;;5083572;28;20211;-75
2023/01/10 09:45:02;;;;;;;17.75;3.88;;;7.30;99.90;;;;;;5101076;28;20073;-76
2023/01/10 09:47:57;;;;;;;17.02;3.83;;;7.50;99.90;;;;;;5101235;28;20103;-76
2023/01/10 09:50:23;;;;;;;;;;;7.50;99.90;;;;;;5101495;28;20120;-75
2023/01/10 09:53:07;;;;;;;16.52;3.88;;;7.40;99.90;;;;;;5084289;28;20091;-75
2023/01/10 09:55:36;;;;;;;20.37;3.77;;;7.40;99.90;;;;;;5084291;28;20058;-75
2023/01/10 09:58:15;;;;;;;17.85;4.25;;;7.20;99.90;;;;;;5083649;28;20582;-76
2023/01/10 10:00:56;;;;;;;19.98;4.30;;;7.10;99.90;;;;;;5100880;28;20043;-75
2023/01/10 10:03:52;;;;;;;22.63;4.93;;;7.10;99.90;;;;;;5084071;28;20036;-75
2023/01/10 10:06:20;;;;;;;21.02;4.90;;;7.10;99.90;;;;;;5083660;28;20067;-75
2023/01/10 10:08:47;;;;;;;19.48;4.90;;;7.30;99.90;;;;;;5100855;28;20099;-76
2023/01/10 10:11:24;;;;;;;17.95;4.68;;;7.40;99.90;;;;;;5079329;28;20559;-76
2023/01/10 10:14:21;;;;;;;20.80;4.20;;;7.40;99.90;;;;;;5063743;28;20036;-75
2023/01/10 10:17:57;;;;;;;17.48;4.75;;;7.40;99.90;;;;;;5080249;28;20150;-75
2023/01/10 10:20:29;;;;;;;22.93;5.30;;;7.10;99.90;;;;;;4975535;28;20109;-75
2023/01/10 10:23:28;;;;;;;18.42;4.05;;;7.10;99.90;;;;;;5002929;28;20049;-75
2023/01/10 10:26:26;;;;;;;20.80;4.90;;;7.30;99.90;;;;;;5077310;28;20060;-75
2023/01/10 10:29:16;;;;;;;23.33;4.82;;;7.10;99.90;;;;;;5063181;28;20032;-76
2023/01/10 10:32:17;;;;;;;17.88;4.35;;;7.40;99.90;;;;;;5099083;28;20380;-76
2023/01/10 10:34:55;;;;;;;21.08;5.07;;;7.40;99.90;;;;;;5083220;28;20047;-75
2023/01/10 10:37:36;;;;;;;18.95;4.03;;;7.30;99.90;;;;;;5082587;28;20257;-75
2023/01/10 10:40:13;;;;;;;15.75;3.65;;;7.30;99.90;;;;;;5082386;28;20115;-75
2023/01/10 10:42:43;;;;;;;22.60;4.95;;;7.20;99.90;;;;;;5083048;28;20326;-76
2023/01/10 10:45:42;;;;;;;16.25;3.90;;;7.20;99.90;;;;;;5099358;28;20039;-76
2023/01/10 10:48:23;;;;;;;16.05;4.13;;;7.20;99.90;;;;;;5099267;28;20028;-76
2023/01/10 10:51:04;;;;;;;19.02;4.38;;;7.10;99.90;;;;;;5063077;28;20033;-76
2023/01/10 10:53:32;;;;;;;20.40;3.83;;;7.20;99.90;;;;;;5096567;28;20254;-76
2023/01/10 10:56:01;;;;;;;18.27;3.83;;;7.30;99.90;;;;;;5096493;28;20070;-77
2023/01/10 10:58:29;;;;;;;17.95;4.15;;;7.20;99.90;;;;;;5062731;28;20036;-76
2023/01/10 11:00:56;;;;;;;13.60;4.53;;;7.10;99.90;;;;;;5063027;28;20095;-76
2023/01/10 11:03:21;;;;;;;13.18;3.80;;;7.30;99.90;;;;;;5062390;28;20033;-76
2023/01/10 11:05:48;;;;;;;17.63;4.65;;;7.20;99.90;;;;;;5062824;28;20107;-76
2023/01/10 11:08:16;;;;;;;18.38;3.65;;;7.20;99.90;;;;;;5045579;28;20517;-76
2023/01/10 11:10:46;;;;;;;19.00;4.05;;;7.30;99.90;;;;;;5096403;28;20145;-77
2023/01/10 11:13:26;;;;;;;18.75;4.07;;;7.40;99.90;;;;;;5081744;28;20044;-77
2023/01/10 11:15:52;;;;;;;23.85;4.45;;;7.50;99.90;;;;;;5099348;28;20089;-76
2023/01/10 11:18:19;;;;;;;18.15;4.13;;;7.40;99.90;;;;;;5081858;28;20047;-75
2023/01/10 11:21:03;;;;;;;15.13;4.15;;;7.50;99.90;;;;;;5099074;28;20406;-76
2023/01/10 11:23:43;;;;;;;18.42;4.07;;;7.40;99.90;;;;;;5062342;28;20083;-76
2023/01/10 11:26:23;;;;;;;13.52;3.97;;;7.30;99.90;;;;;;5075624;28;20093;-76
2023/01/10 11:29:05;;;;;;;23.98;5.50;;;7.40;99.90;;;;;;5098842;28;20027;-75
2023/01/10 11:31:32;;;;;;;18.55;4.95;;;7.60;99.90;;;;;;5098580;28;20417;-76
2023/01/10 11:33:58;;;;;;;19.05;6.25;;;7.50;99.90;;;;;;5098259;28;20319;-76
2023/01/10 11:36:24;;;;;;;20.83;5.10;;;7.50;99.90;;;;;;5082272;28;20039;-76
2023/01/10 11:39:01;;;;;;;27.45;7.43;;;7.60;99.90;;;;;;5048388;28;20099;-76
2023/01/10 11:41:33;;;;;;;17.65;6.53;;;7.50;99.90;;;;;;5081941;28;20057;-76
2023/01/10 11:44:28;;;;;;;21.30;6.00;;;7.60;99.90;;;;;;5080562;28;20554;-75
2023/01/10 11:47:03;;;;;;;27.67;7.00;;;7.40;99.90;;;;;;5081875;28;20028;-75
2023/01/10 11:49:35;;;;;;;;;;;7.60;99.90;;;;;;5079421;28;20036;-76
2023/01/10 11:52:23;;;;;;;18.45;6.22;;;7.60;99.90;;;;;;5078605;28;19994;-75
2023/01/10 11:54:49;;;;;;;21.60;6.85;;;7.60;99.90;;;;;;5078708;28;20037;-75
2023/01/10 11:57:23;;;;;;;25.83;6.57;;;7.40;99.90;;;;;;5061293;28;20044;-75
2023/01/10 11:59:54;;;;;;;22.67;6.80;;;7.50;99.90;;;;;;5078346;28;20093;-74
2023/01/10 12:02:44;;;;;;;21.55;6.38;;;7.40;99.90;;;;;;5078137;28;20028;-76
2023/01/10 12:05:18;;;;;;;24.58;7.95;;;7.40;99.90;;;;;;5067853;28;20036;-74
2023/01/10 12:07:53;;;;;;;21.95;7.25;;;7.50;99.90;;;;;;5078512;28;20241;-75
2023/01/10 12:10:25;;;;;;;25.90;7.65;;;7.40;99.90;;;;;;5077746;28;20044;-74
2023/01/10 12:12:59;;;;;;;19.15;7.60;;;7.50;99.90;;;;;;5060882;28;20319;-76
2023/01/10 12:15:29;;;;;;;20.13;6.93;;;7.50;99.90;;;;;;5077401;28;20267;-75
2023/01/10 12:17:58;;;;;;;19.15;7.00;;;7.50;99.90;;;;;;5077920;28;20315;-75
2023/01/10 12:20:28;;;;;;;27.33;8.18;;;7.30;99.90;;;;;;5076399;28;20049;-76
2023/01/10 12:23:07;;;;;;;25.65;8.35;;;7.50;99.90;;;;;;5076824;28;20059;-74
2023/01/10 12:25:43;;;;;;;22.73;7.80;;;7.30;99.90;;;;;;5080318;28;20215;-76
2023/01/10 12:28:28;;;;;;;21.58;7.97;;;7.40;99.90;;;;;;5097829;28;20024;-76
2023/01/10 12:30:56;;;;;;;;;;;7.30;99.90;;;;;;5082107;28;20077;-75
2023/01/10 12:33:26;;;;;;;21.73;7.38;;;7.30;99.90;;;;;;5098185;28;19926;-75
2023/01/10 12:36:12;;;;;;;19.80;6.80;;;7.30;99.90;;;;;;5098185;28;20035;-75
2023/01/10 12:39:02;;;;;;;23.85;8.20;;;7.40;99.90;;;;;;5098028;28;20046;-75
2023/01/10 12:44:51;;;;;;;19.65;5.72;;;7.30;99.90;;;;;;5025638;28;20019;-74
2023/01/10 12:47:41;;;;;;;21.08;7.13;;;7.30;99.90;;;;;;5084869;28;20024;-74
2023/01/10 12:50:12;;;;;;;18.40;5.57;;;7.20;99.90;;;;;;5101723;28;20044;-75
2023/01/10 12:52:51;;;;;;;18.20;5.57;;;7.30;99.90;;;;;;5085022;28;20067;-74
2023/01/10 12:55:20;;;;;;;20.83;6.30;;;7.20;99.90;;;;;;5064610;28;20078;-74
2023/01/10 12:58:04;;;;;;;19.63;5.95;;;7.20;99.90;;;;;;5081567;28;20286;-76
2023/01/10 13:00:39;;;;;;;20.42;5.00;;;7.20;99.90;;;;;;5064752;28;20531;-75
2023/01/10 13:03:17;;;;;;;26.25;6.47;;;7.20;99.90;;;;;;5064504;28;20090;-75
2023/01/10 13:05:48;;;;;;;15.52;4.80;;;7.10;99.90;;;;;;5084048;28;20040;-75
2023/01/10 13:08:20;;;;;;;17.45;4.78;;;7.40;99.90;;;;;;5101113;28;20046;-75
2023/01/10 13:10:58;;;;;;;16.48;5.25;;;7.10;99.90;;;;;;5085500;28;20065;-75
2023/01/10 13:13:30;;;;;;;11.88;4.35;;;7.10;99.90;;;;;;5084522;28;20081;-75
2023/01/10 13:16:20;;;;;;;17.13;5.05;;;7.20;99.90;;;;;;5084142;28;20090;-75
2023/01/10 13:19:13;;;;;;;21.10;5.60;;;8.50;99.90;;;;;;5084435;28;20295;-74
2023/01/10 13:21:41;;;;;;;19.50;5.15;;;8.10;99.90;;;;;;5101076;28;20098;-74
2023/01/10 13:24:19;;;;;;;7.00;3.10;;;7.10;99.90;;;;;;5100713;28;20040;-74
2023/01/10 13:26:50;;;;;;;22.95;5.95;;;7.10;99.90;;;;;;5101684;28;20326;-74
2023/01/10 13:29:37;;;;;;;15.32;4.28;;;7.10;99.90;;;;;;5100819;28;20040;-74
2023/01/10 13:32:18;;;;;;;13.95;5.60;;;7.10;99.90;;;;;;5084275;28;20103;-75
2023/01/10 13:34:44;;;;;;;23.80;6.28;;;7.00;99.90;;;;;;5100738;28;20106;-74
2023/01/10 13:37:17;;;;;;;13.90;3.35;;;7.10;99.90;;;;;;5083743;28;20036;-75
2023/01/10 13:39:51;;;;;;;21.42;5.15;;;7.10;99.90;;;;;;5101316;28;20043;-74
2023/01/10 13:45:12;;;;;;;12.85;4.10;;;7.00;99.90;;;;;;5100471;28;20091;-74
2023/01/10 13:47:45;;;;;;;10.80;3.33;;;7.00;99.90;;;;;;5101240;28;20214;-74
2023/01/10 13:50:55;;;;;;;20.70;5.28;;;7.00;99.90;;;;;;5100308;28;20032;-73
2023/01/10 13:53:17;;;;;;;18.13;5.72;;;7.00;99.90;;;;;;5094987;28;20101;-73
2023/01/10 13:55:52;;;;;;;16.63;3.83;;;6.90;99.90;;;;;;5100789;28;20066;-74
2023/01/10 14:02:27;;;;;;;19.13;4.47;;;7.10;99.90;;;;;;5099795;28;20039;-75
2023/01/10 14:04:22;;;;;;;18.77;4.28;;;6.80;99.90;;;;;;5100001;28;20081;-75
2023/01/10 14:07:18;;;;;;;20.48;5.43;;;6.90;99.90;;;;;;5100703;28;20085;-76
2023/01/10 14:09:46;;;;;;;14.27;4.30;;;6.70;99.90;;;;;;5076816;28;20046;-75
2023/01/10 14:12:20;;;;;;;15.45;4.90;;;6.80;99.90;;;;;;5066685;28;20113;-75
2023/01/10 14:15:03;;;;;;;20.63;4.75;;;6.80;99.90;;;;;;5091166;28;20044;-75
2023/01/10 14:17:34;;;;;;;21.30;5.07;;;6.70;99.90;;;;;;5048215;28;20075;-76
2023/01/10 14:20:15;;;;;;;26.10;5.53;;;6.70;99.90;;;;;;5070763;28;20111;-76
2023/01/10 14:22:56;;;;;;;15.55;4.13;;;6.70;99.90;;;;;;5100173;28;20047;-75
2023/01/10 14:25:22;;;;;;;20.33;5.28;;;6.70;99.90;;;;;;5082064;28;20346;-74
2023/01/10 14:27:50;;;;;;;20.33;4.05;;;6.60;99.90;;;;;;5050664;28;20107;-75
2023/01/10 14:30:18;;;;;;;16.45;3.53;;;6.70;99.90;;;;;;5080158;28;20481;-75
2023/01/10 14:32:52;;;;;;;24.85;4.90;;;6.60;99.90;;;;;;5083470;28;20047;-75
2023/01/10 14:35:22;;;;;;;14.55;3.33;;;6.60;99.90;;;;;;5098719;28;20043;-75
2023/01/10 14:37:58;;;;;;;12.18;3.83;;;5.30;99.90;;;;;;5100085;28;20054;-76
2023/01/10 14:40:40;;;;;;;13.73;3.72;;;6.60;99.90;;;;;;5083110;28;20269;-75
2023/01/10 14:43:12;;;;;;;15.23;3.45;;;6.60;99.90;;;;;;5082954;28;20084;-76
2023/01/10 14:45:44;;;;;;;7.60;2.90;;;6.60;99.90;;;;;;5098831;28;20027;-75
2023/01/10 14:48:27;;;;;;;19.48;5.03;;;6.60;99.90;;;;;;5082786;28;20024;-74
2023/01/10 14:51:06;;;;;;;14.73;4.72;;;6.60;99.90;;;;;;5099814;28;20215;-75
2023/01/10 14:53:32;;;;;;;15.80;4.28;;;6.50;99.90;;;;;;5082522;28;20084;-76
2023/01/10 14:56:00;;;;;;;17.13;3.45;;;6.60;99.90;;;;;;5082300;28;20350;-75
2023/01/10 14:58:25;;;;;;;10.45;2.75;;;6.50;99.90;;;;;;5066088;28;20054;-75
2023/01/10 15:00:53;;;;;;;14.30;3.08;;;6.60;99.90;;;;;;5079471;28;20037;-76
2023/01/10 15:03:23;;;;;;;16.40;3.40;;;7.00;99.90;;;;;;5061377;28;20072;-77
2023/01/10 15:05:53;;;;;;;10.48;3.22;;;6.60;99.90;;;;;;5090949;28;20044;-76
2023/01/10 15:08:30;;;;;;;21.38;5.38;;;6.60;99.90;;;;;;5082131;28;20032;-76
2023/01/10 15:11:02;;;;;;;18.48;3.70;;;6.60;99.90;;;;;;5099204;28;20074;-77
2023/01/10 15:13:31;;;;;;;16.33;3.47;;;6.50;99.90;;;;;;5098914;28;20038;-76
2023/01/10 15:15:58;;;;;;;16.67;3.03;;;6.60;99.90;;;;;;5099012;28;20067;-75
2023/01/10 15:18:37;;;;;;;11.15;2.97;;;6.60;99.90;;;;;;5098607;28;20044;-76
2023/01/10 15:21:04;;;;;;;25.10;3.78;;;6.50;99.90;;;;;;5098668;28;20115;-75
2023/01/10 15:23:41;;;;;;;19.25;4.35;;;6.60;99.90;;;;;;5099077;28;20123;-76
2023/01/10 15:26:15;;;;;;;18.00;3.97;;;6.60;99.90;;;;;;5099470;28;20023;-75
2023/01/10 15:28:42;;;;;;;11.48;3.63;;;6.60;99.90;;;;;;5099160;28;20043;-76
2023/01/10 15:31:10;;;;;;;12.70;2.88;;;6.60;99.90;;;;;;5099285;28;20028;-77
2023/01/10 15:33:37;;;;;;;12.00;3.22;;;6.50;99.90;;;;;;5065941;28;20043;-74
2023/01/10 15:36:17;;;;;;;12.30;2.97;;;6.70;99.90;;;;;;5082039;28;20078;-78
2023/01/10 15:38:46;;;;;;;17.67;3.33;;;6.60;99.90;;;;;;5099443;28;20516;-75
2023/01/10 15:41:18;;;;;;;8.88;3.08;;;6.60;99.90;;;;;;5097928;28;20380;-75
2023/01/10 15:43:44;;;;;;;16.05;3.22;;;6.60;99.90;;;;;;5082124;28;20109;-75
2023/01/10 15:46:19;;;;;;;13.35;2.88;;;6.60;99.90;;;;;;5099049;28;20032;-75
2023/01/10 15:49:07;;;;;;;11.93;3.42;;;6.60;99.90;;;;;;5099146;28;20028;-76
2023/01/10 15:51:40;;;;;;;10.13;3.58;;;6.60;99.90;;;;;;5082371;28;20281;-77
2023/01/10 15:54:18;;;;;;;13.60;2.53;;;6.70;99.90;;;;;;5065266;28;20032;-75
2023/01/10 15:56:47;;;;;;;11.60;2.90;;;6.60;99.90;;;;;;5081791;28;20086;-76
2023/01/10 15:59:31;;;;;;;18.17;3.83;;;6.60;99.90;;;;;;5061417;28;20120;-75
2023/01/10 16:02:14;;;;;;;15.23;2.90;;;6.70;99.90;;;;;;5062827;28;20121;-75
2023/01/10 16:04:42;;;;;;;13.77;3.22;;;6.80;99.90;;;;;;5081369;28;20036;-75
2023/01/10 16:07:18;;;;;;;16.35;3.78;;;6.70;99.90;;;;;;5081440;28;20036;-76
2023/01/10 16:09:57;;;;;;;13.48;3.05;;;6.80;99.90;;;;;;5098515;28;20388;-76
2023/01/10 16:15:19;;;;;;;13.65;3.72;;;6.70;99.90;;;;;;5077750;28;20047;-76
2023/01/10 16:17:46;;;;;;;13.07;4.05;;;6.70;99.90;;;;;;5098587;28;20288;-76